createdAt,value
2023-03-29T06:51:07.298Z,996.80
2023-03-29T06:52:07.250Z,996.72
2023-03-29T06:53:07.170Z,996.70
2023-03-29T06:54:07.063Z,996.76
2023-03-29T06:55:08.268Z,996.78
2023-03-29T06:56:08.483Z,996.77
2023-03-29T06:57:08.353Z,996.82
2023-03-29T06:58:08.279Z,996.78
2023-03-29T06:59:08.251Z,996.81
2023-03-29T07:00:08.286Z,996.77
2023-03-29T07:01:08.202Z,996.84
2023-03-29T07:02:08.746Z,996.87
2023-03-29T07:03:08.355Z,996.83
2023-03-29T07:04:08.441Z,996.88
2023-03-29T07:05:08.304Z,996.83
2023-03-29T07:06:08.337Z,996.81
2023-03-29T07:07:08.397Z,996.78
2023-03-29T07:08:08.490Z,996.69
2023-03-29T07:09:08.299Z,996.74
2023-03-29T07:10:08.257Z,996.71
2023-03-29T07:11:08.259Z,996.80
2023-03-29T07:12:09.445Z,996.75
2023-03-29T07:13:08.288Z,996.77
2023-03-29T07:14:08.139Z,996.75
2023-03-29T07:15:08.161Z,996.74
2023-03-29T07:16:08.128Z,996.83
2023-03-29T07:17:08.283Z,996.71
2023-03-29T07:18:08.286Z,996.77
2023-03-29T07:19:08.233Z,996.75
2023-03-29T07:20:08.224Z,996.72
2023-03-29T07:21:08.366Z,996.77
2023-03-29T07:22:08.199Z,996.83
2023-03-29T07:23:08.279Z,996.81
2023-03-29T07:24:08.176Z,996.82
2023-03-29T07:25:08.207Z,996.79
2023-03-29T07:26:08.434Z,996.67
2023-03-29T07:27:08.175Z,996.73
2023-03-29T07:28:08.167Z,996.69
2023-03-29T07:29:08.327Z,996.72
2023-03-29T07:30:08.138Z,996.70
2023-03-29T07:31:08.389Z,996.68
2023-03-29T07:32:08.069Z,996.69
2023-03-29T07:33:08.129Z,996.77
2023-03-29T07:34:08.107Z,996.73
2023-03-29T07:35:07.993Z,996.78
2023-03-29T07:36:08.093Z,996.80
2023-03-29T07:37:07.945Z,996.76
2023-03-29T07:38:07.989Z,996.76
2023-03-29T07:39:07.993Z,996.69
2023-03-29T07:40:08.113Z,996.74
2023-03-29T07:41:08.243Z,996.70
2023-03-29T07:42:08.042Z,996.72
2023-03-29T07:43:08.391Z,996.80
2023-03-29T07:44:08.061Z,996.82
2023-03-29T07:45:09.165Z,996.79
2023-03-29T07:46:08.215Z,996.75
2023-03-29T07:47:07.978Z,996.76
2023-03-29T07:48:08.050Z,996.75
2023-03-29T07:49:08.035Z,996.71
2023-03-29T07:50:08.200Z,996.76
2023-03-29T07:51:07.978Z,996.75
2023-03-29T07:52:07.980Z,996.77
2023-03-29T07:53:07.877Z,996.83
2023-03-29T07:54:07.879Z,996.91
2023-03-29T07:55:07.942Z,996.80
2023-03-29T07:56:08.111Z,996.82
2023-03-29T07:57:07.901Z,996.80
2023-03-29T07:58:07.817Z,996.80
2023-03-29T07:59:07.973Z,996.77
2023-03-29T08:00:07.928Z,996.79
2023-03-29T08:01:08.071Z,996.75
2023-03-29T08:02:07.914Z,996.81
2023-03-29T08:03:07.935Z,996.78
2023-03-29T08:04:08.091Z,996.77
2023-03-29T08:05:07.977Z,996.78
2023-03-29T08:06:07.863Z,996.68
2023-03-29T08:07:07.923Z,996.69
2023-03-29T08:08:07.970Z,996.73
2023-03-29T08:09:08.040Z,996.73
2023-03-29T08:10:08.120Z,996.72
2023-03-29T08:11:07.918Z,996.67
2023-03-29T08:12:07.923Z,996.68
2023-03-29T08:13:07.915Z,996.66
2023-03-29T08:14:07.785Z,996.59
2023-03-29T08:15:07.765Z,996.59
2023-03-29T08:16:08.737Z,996.66
2023-03-29T08:17:07.759Z,996.70
2023-03-29T08:18:07.937Z,996.75
2023-03-29T08:19:07.672Z,996.68
2023-03-29T08:20:07.789Z,996.70
2023-03-29T08:21:07.747Z,996.69
2023-03-29T08:22:08.094Z,996.78
2023-03-29T08:23:07.837Z,996.73
2023-03-29T08:24:07.732Z,996.71
2023-03-29T08:25:07.709Z,996.72
2023-03-29T08:26:07.755Z,996.71
2023-03-29T08:27:07.667Z,996.77
2023-03-29T08:28:07.744Z,996.76
2023-03-29T08:29:07.862Z,996.80
2023-03-29T08:30:07.758Z,996.78
2023-03-29T08:31:08.495Z,996.79
2023-03-29T08:32:07.575Z,996.65
2023-03-29T08:33:07.632Z,996.80
2023-03-29T08:34:07.593Z,996.70
2023-03-29T08:35:07.571Z,996.68
2023-03-29T08:36:07.787Z,996.68
2023-03-29T08:37:07.571Z,996.70
2023-03-29T08:38:07.534Z,996.71
2023-03-29T08:39:07.560Z,996.64
2023-03-29T08:40:07.539Z,996.72
2023-03-29T08:41:07.603Z,996.76
2023-03-29T08:42:07.677Z,996.73
2023-03-29T08:43:07.632Z,996.71
2023-03-29T08:44:07.645Z,996.63
2023-03-29T08:45:07.638Z,996.59
2023-03-29T08:46:07.627Z,996.70
2023-03-29T08:47:07.525Z,996.60
2023-03-29T08:48:07.985Z,996.72
2023-03-29T08:49:07.566Z,996.74
2023-03-29T08:50:07.580Z,996.70
2023-03-29T08:51:09.460Z,996.74
2023-03-29T08:52:08.651Z,996.74
2023-03-29T08:53:07.599Z,996.81
2023-03-29T08:54:07.495Z,996.74
2023-03-29T08:55:07.445Z,996.88
2023-03-29T08:56:07.827Z,996.77
2023-03-29T08:57:07.645Z,996.76
2023-03-29T08:58:07.433Z,996.68
2023-03-29T08:59:07.428Z,996.73
2023-03-29T09:00:07.404Z,996.70
2023-03-29T09:01:07.557Z,996.77
2023-03-29T09:02:07.804Z,996.77
2023-03-29T09:03:07.456Z,996.75
2023-03-29T09:06:26.500Z,996.74
2023-03-29T09:09:46.811Z,996.75
2023-03-29T09:10:48.120Z,996.60
2023-03-29T09:11:47.994Z,996.58
2023-03-29T09:12:48.026Z,996.46
2023-03-29T09:13:48.182Z,996.50
2023-03-29T09:14:48.046Z,996.47
2023-03-29T09:15:48.182Z,996.40
2023-03-29T09:16:48.046Z,996.42
2023-03-29T09:17:49.609Z,996.42
2023-03-29T09:18:49.078Z,996.43
2023-03-29T09:19:49.145Z,996.42
2023-03-29T09:20:48.014Z,996.34
2023-03-29T09:21:48.029Z,996.24
2023-03-29T09:22:48.010Z,996.37
2023-03-29T09:23:48.402Z,996.38
2023-03-29T09:24:48.142Z,996.52
2023-03-29T09:25:53.363Z,996.54
2023-03-29T09:26:49.973Z,996.55
2023-03-29T09:27:47.864Z,996.54
2023-03-29T09:28:47.916Z,996.56
2023-03-29T09:29:47.890Z,996.48
2023-03-29T09:30:47.932Z,996.50
2023-03-29T09:31:47.993Z,996.45
2023-03-29T09:32:47.950Z,996.50
2023-03-29T09:33:47.820Z,996.58
2023-03-29T09:34:47.858Z,996.44
2023-03-29T09:35:47.944Z,996.54
2023-03-29T09:36:48.088Z,996.52
2023-03-29T09:37:47.916Z,996.56
2023-03-29T09:38:48.049Z,996.59
2023-03-29T09:39:48.216Z,996.48
2023-03-29T09:40:47.906Z,996.51
2023-03-29T09:41:47.968Z,996.52
2023-03-29T09:42:47.909Z,996.51
2023-03-29T09:43:48.037Z,996.49
2023-03-29T09:44:48.199Z,996.38
2023-03-29T09:45:47.971Z,996.47
2023-03-29T09:46:47.739Z,996.39
2023-03-29T09:47:47.867Z,996.42
2023-03-29T09:48:47.718Z,996.46
2023-03-29T09:49:47.844Z,996.46
2023-03-29T09:50:47.835Z,996.44
2023-03-29T09:51:48.088Z,996.37
2023-03-29T09:52:47.890Z,996.36
2023-03-29T09:53:47.947Z,996.30
2023-03-29T09:54:47.794Z,996.32
2023-03-29T09:55:49.093Z,996.30
2023-03-29T09:56:49.089Z,996.23
2023-03-29T09:57:47.792Z,996.18
2023-03-29T09:58:48.134Z,996.25
2023-03-29T09:59:47.804Z,996.25
2023-03-29T10:00:47.754Z,996.17
2023-03-29T10:01:47.792Z,996.13
2023-03-29T10:02:47.956Z,996.18
2023-03-29T10:03:47.702Z,996.01
2023-03-29T10:04:47.728Z,996.02
2023-03-29T10:05:47.611Z,996.05
2023-03-29T10:06:47.652Z,996.03
2023-03-29T10:07:47.616Z,996.01
2023-03-29T10:08:47.612Z,996.06
2023-03-29T10:09:47.783Z,996.06
2023-03-29T10:10:47.715Z,996.14
2023-03-29T10:11:47.698Z,996.14
2023-03-29T10:12:48.004Z,996.19
2023-03-29T10:13:47.619Z,996.20
2023-03-29T10:14:47.861Z,996.18
2023-03-29T10:15:47.651Z,996.14
2023-03-29T10:16:48.000Z,996.13
2023-03-29T10:17:47.633Z,996.13
2023-03-29T10:18:47.799Z,996.10
2023-03-29T10:19:47.620Z,996.13
2023-03-29T10:20:47.651Z,996.18
2023-03-29T10:21:47.533Z,996.19
2023-03-29T10:22:47.504Z,996.14
2023-03-29T10:23:47.618Z,996.10
2023-03-29T10:24:47.464Z,996.10
2023-03-29T10:25:47.542Z,996.10
2023-03-29T10:26:47.539Z,996.00
2023-03-29T10:27:47.544Z,996.06
2023-03-29T10:28:47.584Z,995.98
2023-03-29T10:29:47.626Z,996.05
2023-03-29T10:30:47.563Z,995.97
2023-03-29T10:31:47.670Z,996.04
2023-03-29T10:32:47.572Z,996.05
2023-03-29T10:33:47.624Z,996.13
2023-03-29T10:34:47.560Z,996.11
2023-03-29T10:35:47.620Z,996.09
2023-03-29T10:36:47.851Z,996.06
2023-03-29T10:37:47.629Z,996.03
2023-03-29T10:38:47.617Z,995.98
2023-03-29T10:39:47.449Z,996.08
2023-03-29T10:40:47.547Z,996.05
2023-03-29T10:41:48.596Z,996.05
2023-03-29T10:42:47.389Z,995.97
2023-03-29T10:43:47.505Z,996.02
2023-03-29T10:44:47.417Z,995.99
2023-03-29T10:45:47.616Z,996.10
2023-03-29T10:46:47.497Z,996.06
2023-03-29T10:47:47.486Z,996.08
2023-03-29T10:48:47.722Z,996.02
2023-03-29T10:49:47.946Z,995.97
2023-03-29T10:50:47.436Z,996.00
2023-03-29T10:51:47.413Z,995.95
2023-03-29T10:52:47.570Z,995.87
2023-03-29T10:53:47.305Z,995.85
2023-03-29T10:54:47.310Z,995.83
2023-03-29T10:55:47.590Z,995.90
2023-03-29T10:56:47.392Z,995.85
2023-03-29T10:57:47.306Z,995.77
2023-03-29T10:58:47.745Z,995.83
2023-03-29T10:59:47.379Z,995.82
2023-03-29T11:00:47.390Z,995.91
2023-03-29T11:01:47.752Z,995.88
2023-03-29T11:02:47.468Z,995.94
2023-03-29T11:03:47.570Z,995.90
2023-03-29T11:04:47.304Z,995.84
2023-03-29T11:05:47.340Z,995.89
2023-03-29T11:06:47.410Z,995.85
2023-03-29T11:07:47.427Z,995.86
2023-03-29T11:08:47.328Z,995.82
2023-03-29T11:09:47.686Z,995.78
2023-03-29T11:10:47.346Z,995.87
2023-03-29T11:11:47.202Z,995.77
2023-03-29T11:12:47.146Z,995.85
2023-03-29T11:13:47.142Z,995.91
2023-03-29T11:14:47.354Z,995.89
2023-03-29T11:15:47.582Z,995.88
2023-03-29T11:16:47.692Z,995.84
2023-03-29T11:17:47.445Z,995.82
2023-03-29T11:18:47.356Z,995.82
2023-03-29T11:19:47.979Z,995.78
2023-03-29T11:20:47.633Z,995.76
2023-03-29T11:21:47.538Z,995.84
2023-03-29T11:22:47.222Z,995.86
2023-03-29T11:23:47.391Z,995.86
2023-03-29T11:24:47.133Z,995.85
2023-03-29T11:25:47.138Z,995.85
2023-03-29T11:26:47.087Z,995.88
2023-03-29T11:27:47.129Z,995.86
2023-03-29T11:28:47.045Z,995.92
2023-03-29T11:29:47.050Z,995.85
2023-03-29T11:30:47.196Z,995.80
2023-03-29T11:31:47.277Z,995.86
2023-03-29T11:32:47.295Z,995.82
2023-03-29T11:33:47.271Z,995.81
2023-03-29T11:34:47.148Z,995.82
2023-03-29T11:35:47.226Z,995.88
2023-03-29T11:36:47.140Z,995.82
2023-03-29T11:37:47.277Z,995.79
2023-03-29T11:38:47.124Z,995.74
2023-03-29T11:39:47.454Z,995.73
2023-03-29T11:40:47.255Z,995.69
2023-03-29T11:41:47.526Z,995.77
2023-03-29T11:42:47.173Z,995.69
2023-03-29T11:43:46.984Z,995.64
2023-03-29T11:44:47.032Z,995.70
2023-03-29T11:45:47.285Z,995.66
2023-03-29T11:46:47.067Z,995.67
2023-03-29T11:47:47.055Z,995.64
2023-03-29T11:48:46.920Z,995.64
2023-03-29T11:49:46.920Z,995.67
2023-03-29T11:50:46.959Z,995.72
2023-03-29T11:51:46.981Z,995.68
2023-03-29T11:52:47.029Z,995.63
2023-03-29T11:53:46.991Z,995.56
2023-03-29T11:54:46.914Z,995.58
2023-03-29T11:55:46.943Z,995.60
2023-03-29T11:56:47.318Z,995.54
2023-03-29T11:57:47.026Z,995.60
2023-03-29T11:58:46.897Z,995.59
2023-03-29T11:59:46.990Z,995.64
2023-03-29T12:00:46.957Z,995.63
2023-03-29T12:01:47.037Z,995.63
2023-03-29T12:02:47.090Z,995.54
2023-03-29T12:03:47.505Z,995.56
2023-03-29T12:04:46.827Z,995.54
2023-03-29T12:05:46.733Z,995.54
2023-03-29T12:06:46.903Z,995.48
2023-03-29T12:07:46.825Z,995.52
2023-03-29T12:08:47.241Z,995.54
2023-03-29T12:09:47.001Z,995.50
2023-03-29T12:10:46.805Z,995.52
2023-03-29T12:11:47.327Z,995.48
2023-03-29T12:12:46.849Z,995.47
2023-03-29T12:13:46.905Z,995.43
2023-03-29T12:14:46.881Z,995.45
2023-03-29T12:15:46.791Z,995.47
2023-03-29T12:16:46.969Z,995.45
2023-03-29T12:17:46.899Z,995.46
2023-03-29T12:18:46.713Z,995.34
2023-03-29T12:19:46.804Z,995.33
2023-03-29T12:20:46.850Z,995.42
2023-03-29T12:21:46.677Z,995.36
2023-03-29T12:22:46.690Z,995.25
2023-03-29T12:23:46.634Z,995.28
2023-03-29T12:24:46.799Z,995.21
2023-03-29T12:25:46.725Z,995.25
2023-03-29T12:26:46.880Z,995.24
2023-03-29T12:27:46.737Z,995.19
2023-03-29T12:28:46.830Z,995.16
2023-03-29T12:29:46.770Z,995.22
2023-03-29T12:30:47.025Z,995.10
2023-03-29T12:31:46.758Z,995.21
2023-03-29T12:32:46.863Z,995.16
2023-03-29T12:33:47.013Z,995.15
2023-03-29T12:34:46.944Z,995.16
2023-03-29T12:35:46.784Z,995.12
2023-03-29T12:36:46.581Z,995.14
2023-03-29T12:37:46.588Z,995.08
2023-03-29T12:38:46.985Z,995.06
2023-03-29T12:39:46.850Z,995.12
2023-03-29T12:40:46.730Z,995.12
2023-03-29T12:41:46.709Z,995.19
2023-03-29T12:42:46.767Z,995.17
2023-03-29T12:43:46.649Z,995.06
2023-03-29T12:44:46.610Z,995.11
2023-03-29T12:45:47.987Z,995.06
2023-03-29T12:46:47.419Z,995.05
2023-03-29T12:47:46.840Z,995.04
2023-03-29T12:48:46.657Z,995.14
2023-03-29T12:49:46.629Z,995.10
2023-03-29T12:50:47.074Z,995.11
2023-03-29T12:51:46.480Z,995.16
2023-03-29T12:52:46.510Z,995.09
2023-03-29T12:53:46.707Z,995.17
2023-03-29T12:54:46.455Z,995.19
2023-03-29T12:55:46.470Z,995.13
2023-03-29T12:56:46.776Z,995.06
2023-03-29T12:57:46.498Z,995.14
2023-03-29T12:58:46.784Z,995.10
2023-03-29T12:59:46.514Z,994.92
2023-03-29T13:00:47.131Z,995.00
2023-03-29T13:01:47.389Z,995.03
2023-03-29T13:02:46.435Z,995.02
2023-03-29T13:03:47.879Z,994.97
2023-03-29T13:04:46.699Z,994.98
2023-03-29T13:05:46.542Z,994.90
2023-03-29T13:06:46.457Z,994.89
2023-03-29T13:07:46.645Z,994.92
2023-03-29T13:08:46.655Z,994.89
2023-03-29T13:09:46.493Z,994.84
2023-03-29T13:10:46.370Z,994.82
2023-03-29T13:11:46.348Z,994.80
2023-03-29T13:12:47.464Z,994.62
2023-03-29T13:13:46.278Z,994.81
2023-03-29T13:14:46.512Z,994.73
2023-03-29T13:15:46.491Z,994.74
2023-03-29T13:16:46.513Z,994.71
2023-03-29T13:17:46.429Z,994.68
2023-03-29T13:18:46.547Z,994.69
2023-03-29T13:19:46.417Z,994.59
2023-03-29T13:20:46.421Z,994.57
2023-03-29T13:21:46.518Z,994.61
2023-03-29T13:22:46.374Z,994.64
2023-03-29T13:23:46.266Z,994.62
2023-03-29T13:24:46.248Z,994.56
2023-03-29T13:25:46.748Z,994.58
2023-03-29T13:26:46.308Z,994.56
2023-03-29T13:27:46.239Z,994.53
2023-03-29T13:28:46.226Z,994.55
2023-03-29T13:29:46.207Z,994.56
2023-03-29T13:30:46.587Z,994.61
2023-03-29T13:31:46.319Z,994.54
2023-03-29T13:32:46.629Z,994.57
2023-03-29T13:33:46.423Z,994.56
2023-03-29T13:34:46.243Z,994.59
2023-03-29T13:35:46.297Z,994.62
2023-03-29T13:36:46.299Z,994.64
2023-03-29T13:37:46.315Z,994.53
2023-03-29T13:38:46.285Z,994.50
2023-03-29T13:39:46.608Z,994.58
2023-03-29T13:40:46.208Z,994.52
2023-03-29T13:41:46.553Z,994.58
2023-03-29T13:42:47.228Z,994.57
2023-03-29T13:43:47.253Z,994.53
2023-03-29T13:44:46.139Z,994.56
2023-03-29T13:45:46.187Z,994.53
2023-03-29T13:46:46.317Z,994.48
2023-03-29T13:47:58.333Z,994.44
2023-03-29T13:48:48.092Z,994.44
2023-03-29T13:49:46.140Z,994.32
2023-03-29T13:50:46.131Z,994.35
2023-03-29T13:51:46.158Z,994.31
2023-03-29T13:52:46.475Z,994.29
2023-03-29T13:53:46.185Z,994.32
